Time;durP1;ratioP1;P1;durP2;ratioP2;P2;SDS_P1;SDS_P2;PMS_P1;PMS_P2;Temp;Humidity;BMP_temperature;BMP_pressure;BME280_temperature;BME280_humidity;BME280_pressure;Samples;Min_cycle;Max_cycle;Signal;HPM_P1;HPM_P2
2022/02/01 00:46:12;;;;;;;;;16.00;11.25;;;;;;;;5870932;22;45466;-78
2022/02/01 00:48:38;;;;;;;;;9.75;8.75;;;;;;;;5054431;28;45598;-81
2022/02/01 00:51:04;;;;;;;;;15.00;12.00;;;;;;;;5193996;22;45379;-81
2022/02/01 00:53:31;;;;;;;;;11.00;10.50;;;;;;;;5058348;28;45597;-80
2022/02/01 00:55:57;;;;;;;;;9.25;8.50;;;;;;;;5057831;27;45407;-80
2022/02/01 00:58:23;;;;;;;;;13.00;8.00;;;;;;;;5058413;28;45913;-79
2022/02/01 01:00:48;;;;;;;;;9.25;7.25;;;;;;;;5054875;28;45492;-80
2022/02/01 01:03:14;;;;;;;;;12.75;10.50;;;;;;;;5060251;28;45470;-80
2022/02/01 01:05:39;;;;;;;;;7.50;7.50;;;;;;;;5061403;28;45261;-79
2022/02/01 01:08:05;;;;;;;;;9.75;9.50;;;;;;;;5061013;28;45451;-79
2022/02/01 01:10:30;;;;;;;;;10.50;7.50;;;;;;;;5060508;27;45331;-79
2022/02/01 01:13:11;;;;;;;;;9.50;9.50;;;;;;;;5058817;28;46158;-79
2022/02/01 01:15:40;;;;;;;;;9.25;7.25;;;;;;;;5057254;28;45522;-79
2022/02/01 01:45:38;;;;;;;;;7.50;6.00;;;;;;;;4973762;28;45667;-80
2022/02/01 01:53:31;;;;;;;;;5.50;5.00;;;;;;;;4974321;28;45416;-78
2022/02/01 01:55:56;;;;;;;;;10.00;6.50;;;;;;;;4973946;28;45390;-80
2022/02/01 01:58:22;;;;;;;;;4.00;4.00;;;;;;;;4974907;28;45370;-78
2022/02/01 02:03:23;;;;;;;;;6.00;4.00;;;;;;;;4975382;28;45550;-83
2022/02/01 02:05:48;;;;;;;;;8.00;8.00;;;;;;;;4974877;28;45397;-79
2022/02/01 02:08:14;;;;;;;;;9.25;6.25;;;;;;;;4974320;28;45348;-78
2022/02/01 02:10:51;;;;;;;;;4.75;3.50;;;;;;;;4974567;28;47427;-78
2022/02/01 02:16:01;;;;;;;;;11.25;7.50;;;;;;;;4974645;28;45401;-79
2022/02/01 02:18:28;;;;;;;;;9.50;7.50;;;;;;;;4962591;28;45447;-79
2022/02/01 02:20:55;;;;;;;;;6.50;5.00;;;;;;;;4973272;28;46033;-78
2022/02/01 02:23:20;;;;;;;;;7.50;6.25;;;;;;;;5000914;28;45639;-79
2022/02/01 02:25:46;;;;;;;;;8.00;7.00;;;;;;;;5016156;28;45436;-79
2022/02/01 02:28:14;;;;;;;;;10.50;9.00;;;;;;;;5016045;28;45348;-76
2022/02/01 02:30:46;;;;;;;;;11.00;10.00;;;;;;;;5015342;28;46044;-78
2022/02/01 02:33:13;;;;;;;;;8.00;6.00;;;;;;;;5012874;28;45209;-78
2022/02/01 02:35:49;;;;;;;;;11.50;9.00;;;;;;;;5015983;28;45456;-75
2022/02/01 02:38:20;;;;;;;;;13.25;8.25;;;;;;;;5015868;28;45656;-77
2022/02/01 02:46:00;;;;;;;;;8.50;8.50;;;;;;;;5015836;28;45415;-78
2022/02/01 02:48:25;;;;;;;;;7.75;7.75;;;;;;;;5015996;28;45445;-76
2022/02/01 02:50:50;;;;;;;;;10.00;8.00;;;;;;;;5015177;28;46709;-79
2022/02/01 02:53:15;;;;;;;;;8.50;8.50;;;;;;;;5015730;28;45431;-78
2022/02/01 02:55:40;;;;;;;;;13.75;10.00;;;;;;;;5014844;28;45325;-79
2022/02/01 02:58:06;;;;;;;;;11.00;6.25;;;;;;;;5014598;28;45294;-78
2022/02/01 03:00:31;;;;;;;;;7.75;6.50;;;;;;;;5014531;28;45526;-79
2022/02/01 03:02:57;;;;;;;;;9.75;6.25;;;;;;;;5016111;28;45393;-78
2022/02/01 03:05:22;;;;;;;;;7.50;5.00;;;;;;;;5024973;28;45376;-83
2022/02/01 03:07:47;;;;;;;;;6.25;6.25;;;;;;;;5025563;28;45499;-85
2022/02/01 03:10:12;;;;;;;;;9.50;6.75;;;;;;;;5014402;28;46887;-81
2022/02/01 03:20:39;;;;;;;;;6.50;5.00;;;;;;;;5008385;28;45367;-81
2022/02/01 03:23:04;;;;;;;;;4.25;4.25;;;;;;;;5010858;28;45564;-84
2022/02/01 03:25:29;;;;;;;;;5.25;5.25;;;;;;;;5014303;28;45440;-82
2022/02/01 03:27:54;;;;;;;;;3.50;3.50;;;;;;;;5015630;28;45542;-83
2022/02/01 03:30:22;;;;;;;;;4.00;3.50;;;;;;;;5014901;28;46016;-82
2022/02/01 04:19:25;;;;;;;;;7.00;7.00;;;;;;;;5020845;28;45855;-82
2022/02/01 04:22:03;;;;;;;;;10.75;7.00;;;;;;;;5029236;28;45497;-83
2022/02/01 04:24:32;;;;;;;;;5.25;5.25;;;;;;;;5033952;28;45343;-83
2022/02/01 04:26:58;;;;;;;;;6.50;5.00;;;;;;;;5016041;28;45570;-83
2022/02/01 04:29:23;;;;;;;;;13.50;7.00;;;;;;;;5015923;28;47463;-83
2022/02/01 04:31:48;;;;;;;;;7.50;6.25;;;;;;;;5015016;28;45501;-83
2022/02/01 04:34:14;;;;;;;;;6.25;4.00;;;;;;;;5016534;28;45413;-83
2022/02/01 04:36:39;;;;;;;;;7.50;5.25;;;;;;;;5035468;28;45253;-82
2022/02/01 04:39:05;;;;;;;;;8.50;5.00;;;;;;;;5037080;28;46370;-80
2022/02/01 04:41:31;;;;;;;;;4.25;3.00;;;;;;;;5016610;28;45484;-80
2022/02/01 04:46:21;;;;;;;;;8.50;5.50;;;;;;;;5501683;22;53830;-83
2022/02/01 04:48:47;;;;;;;;;6.50;6.00;;;;;;;;5056733;28;45440;-83
2022/02/01 04:51:13;;;;;;;;;3.75;2.00;;;;;;;;5057449;28;45371;-83
2022/02/01 04:53:38;;;;;;;;;5.00;5.00;;;;;;;;5039414;28;45669;-82
2022/02/01 04:56:04;;;;;;;;;4.00;4.00;;;;;;;;5056932;28;45498;-80
2022/02/01 04:58:29;;;;;;;;;3.00;3.00;;;;;;;;5057193;28;45371;-82
2022/02/01 05:00:54;;;;;;;;;5.25;5.25;;;;;;;;5056846;28;45491;-81
2022/02/01 05:03:20;;;;;;;;;6.50;5.00;;;;;;;;5039310;28;45490;-81
2022/02/01 05:05:45;;;;;;;;;8.25;4.50;;;;;;;;5057164;28;45411;-81
2022/02/01 05:08:12;;;;;;;;;4.50;3.75;;;;;;;;5055860;28;46211;-78
2022/02/01 05:10:38;;;;;;;;;7.50;4.75;;;;;;;;5056634;28;45325;-79
2022/02/01 05:15:48;;;;;;;;;7.25;5.00;;;;;;;;5046212;28;45408;-79
2022/02/01 05:18:18;;;;;;;;;7.50;4.75;;;;;;;;5038503;28;47388;-80
2022/02/01 05:20:52;;;;;;;;;6.25;4.25;;;;;;;;5053962;28;45466;-83
2022/02/01 05:23:19;;;;;;;;;5.50;3.50;;;;;;;;5056338;28;45437;-83
2022/02/01 05:31:26;;;;;;;;;6.00;5.00;;;;;;;;5035768;28;45677;-82
2022/02/01 05:36:53;;;;;;;;;6.00;2.50;;;;;;;;5051845;28;45738;-81
2022/02/01 06:03:52;;;;;;;;;6.50;4.00;;;;;;;;5041184;28;45987;-81
2022/02/01 06:06:38;;;;;;;;;4.00;4.00;;;;;;;;5047351;28;45276;-81
2022/02/01 06:24:40;;;;;;;;;4.00;4.00;;;;;;;;5007809;28;45452;-85
2022/02/01 06:33:24;;;;;;;;;4.25;4.25;;;;;;;;5015128;28;45426;-84
2022/02/01 06:35:49;;;;;;;;;5.00;4.00;;;;;;;;5014503;28;45303;-86
2022/02/01 06:43:27;;;;;;;;;5.50;4.50;;;;;;;;5118551;22;45257;-82
2022/02/01 06:45:52;;;;;;;;;7.00;7.00;;;;;;;;5052908;28;45565;-81
2022/02/01 06:53:32;;;;;;;;;8.00;5.50;;;;;;;;5720714;22;46627;-78
2022/02/01 06:56:07;;;;;;;;;4.25;3.25;;;;;;;;5033753;28;45322;-78
2022/02/01 06:58:33;;;;;;;;;6.75;4.00;;;;;;;;5032779;28;46087;-79
2022/02/01 07:00:58;;;;;;;;;5.25;3.75;;;;;;;;5033276;28;45423;-80
2022/02/01 07:03:27;;;;;;;;;4.75;4.00;;;;;;;;5033474;28;45396;-79
2022/02/01 07:05:54;;;;;;;;;6.25;5.25;;;;;;;;5030060;28;45599;-80
2022/02/01 07:08:19;;;;;;;;;8.00;5.25;;;;;;;;5032479;28;47363;-78
2022/02/01 07:10:44;;;;;;;;;8.00;6.00;;;;;;;;5032517;28;45328;-80
2022/02/01 07:13:09;;;;;;;;;8.25;4.50;;;;;;;;5033704;28;45476;-79
2022/02/01 07:15:35;;;;;;;;;5.25;5.00;;;;;;;;5032380;28;45284;-79
2022/02/01 07:18:00;;;;;;;;;10.25;5.00;;;;;;;;5032958;28;45431;-80
2022/02/01 07:20:25;;;;;;;;;5.75;4.25;;;;;;;;5032008;28;45659;-79
2022/02/01 07:22:51;;;;;;;;;4.00;3.75;;;;;;;;5032941;28;45571;-80
2022/02/01 07:25:24;;;;;;;;;4.00;4.00;;;;;;;;5032115;28;45596;-79
2022/02/01 07:27:53;;;;;;;;;4.25;4.00;;;;;;;;5031854;28;47001;-81
2022/02/01 07:30:20;;;;;;;;;6.00;4.00;;;;;;;;5030458;28;45485;-80
2022/02/01 07:32:45;;;;;;;;;4.00;4.00;;;;;;;;5031134;28;45489;-79
2022/02/01 07:35:11;;;;;;;;;4.75;3.75;;;;;;;;5031424;28;45450;-78
2022/02/01 07:37:36;;;;;;;;;5.25;4.25;;;;;;;;5030579;28;45482;-78
2022/02/01 07:40:02;;;;;;;;;7.25;4.25;;;;;;;;5019301;28;45619;-79
2022/02/01 07:42:31;;;;;;;;;2.25;2.25;;;;;;;;5029523;28;45699;-77
2022/02/01 07:44:59;;;;;;;;;8.75;3.00;;;;;;;;5028616;28;45542;-77
2022/02/01 07:47:46;;;;;;;;;5.75;4.50;;;;;;;;5326899;22;47122;-78
2022/02/01 07:50:45;;;;;;;;;6.00;6.00;;;;;;;;5032986;28;45348;-77
2022/02/01 07:53:17;;;;;;;;;6.75;2.00;;;;;;;;5028054;28;45604;-77
2022/02/01 07:55:42;;;;;;;;;4.00;4.00;;;;;;;;5032670;28;45242;-78
2022/02/01 07:58:13;;;;;;;;;7.75;5.75;;;;;;;;5032051;28;46239;-79
2022/02/01 08:00:39;;;;;;;;;4.50;3.75;;;;;;;;5049406;28;45542;-77
2022/02/01 08:03:06;;;;;;;;;4.00;3.75;;;;;;;;5049521;28;45424;-76
2022/02/01 08:05:32;;;;;;;;;6.75;3.50;;;;;;;;5052828;28;45484;-75
2022/02/01 08:07:59;;;;;;;;;6.00;3.75;;;;;;;;5053148;28;46881;-76
2022/02/01 08:10:27;;;;;;;;;7.25;4.00;;;;;;;;5053173;28;45577;-74
2022/02/01 08:20:43;;;;;;;;;6.25;5.00;;;;;;;;5031101;28;45476;-72
2022/02/01 08:23:08;;;;;;;;;3.50;3.00;;;;;;;;5030021;28;45574;-72
2022/02/01 08:25:34;;;;;;;;;6.75;4.75;;;;;;;;5031226;28;45467;-73
2022/02/01 08:28:04;;;;;;;;;10.50;5.00;;;;;;;;5030747;28;47069;-73
2022/02/01 08:30:30;;;;;;;;;6.50;4.00;;;;;;;;5030160;28;45208;-72
2022/02/01 08:32:55;;;;;;;;;4.75;4.75;;;;;;;;5033344;28;45280;-72
2022/02/01 08:35:20;;;;;;;;;6.25;4.75;;;;;;;;5031450;28;45365;-72
2022/02/01 08:37:46;;;;;;;;;11.50;6.00;;;;;;;;5030094;28;45517;-74
2022/02/01 08:40:16;;;;;;;;;4.50;4.00;;;;;;;;5027793;28;45170;-74
2022/02/01 08:42:41;;;;;;;;;4.75;3.75;;;;;;;;5023737;28;45427;-74
2022/02/01 08:45:08;;;;;;;;;3.25;3.25;;;;;;;;5032121;28;45626;-74
2022/02/01 08:47:34;;;;;;;;;6.25;5.25;;;;;;;;5029725;28;46933;-74
2022/02/01 08:49:59;;;;;;;;;4.75;4.75;;;;;;;;5028945;28;45388;-75
2022/02/01 08:52:37;;;;;;;;;3.00;3.00;;;;;;;;5027646;28;45547;-79
2022/02/01 08:55:05;;;;;;;;;6.00;3.00;;;;;;;;5032855;28;45504;-78
2022/02/01 08:57:31;;;;;;;;;8.75;6.00;;;;;;;;5034240;28;46276;-75
2022/02/01 09:00:01;;;;;;;;;8.50;5.50;;;;;;;;5031485;28;45466;-68
2022/02/01 09:02:27;;;;;;;;;6.00;5.25;;;;;;;;5028444;28;45449;-66
2022/02/01 09:04:52;;;;;;;;;5.75;4.00;;;;;;;;5029075;28;45635;-66
2022/02/01 09:07:17;;;;;;;;;5.25;4.25;;;;;;;;5033588;28;46272;-68
2022/02/01 09:09:43;;;;;;;;;10.75;8.00;;;;;;;;5029805;28;45558;-68
2022/02/01 09:12:08;;;;;;;;;11.50;8.25;;;;;;;;5027425;28;45448;-66
2022/02/01 09:14:34;;;;;;;;;9.75;7.25;;;;;;;;5030310;28;45604;-67
2022/02/01 09:17:00;;;;;;;;;5.75;4.75;;;;;;;;5028738;28;47114;-67
2022/02/01 09:19:30;;;;;;;;;5.00;5.00;;;;;;;;5028794;28;45367;-67
2022/02/01 09:21:56;;;;;;;;;6.75;5.00;;;;;;;;5029176;28;45342;-66
2022/02/01 09:24:21;;;;;;;;;3.25;3.25;;;;;;;;5034855;28;45277;-67
2022/02/01 09:26:47;;;;;;;;;8.50;5.25;;;;;;;;5033094;28;45292;-66
2022/02/01 09:29:12;;;;;;;;;7.75;5.00;;;;;;;;5027731;28;45803;-69
2022/02/01 09:31:37;;;;;;;;;7.50;7.50;;;;;;;;5033984;28;45256;-66
2022/02/01 09:34:04;;;;;;;;;6.00;6.00;;;;;;;;5032601;28;45226;-66
2022/02/01 09:36:29;;;;;;;;;4.50;3.00;;;;;;;;5035849;28;46056;-66
2022/02/01 09:38:56;;;;;;;;;5.25;5.00;;;;;;;;5055271;28;45394;-65
2022/02/01 09:41:22;;;;;;;;;5.25;5.25;;;;;;;;5051957;28;45388;-66
2022/02/01 09:43:48;;;;;;;;;5.00;3.50;;;;;;;;5051820;28;45640;-66
2022/02/01 09:46:13;;;;;;;;;4.75;4.75;;;;;;;;5052464;28;46317;-66
2022/02/01 09:48:38;;;;;;;;;5.25;4.00;;;;;;;;5052745;28;45383;-67
2022/02/01 09:51:04;;;;;;;;;9.00;5.50;;;;;;;;5054169;28;45501;-67
2022/02/01 09:53:30;;;;;;;;;5.00;4.00;;;;;;;;5051139;28;45339;-66
2022/02/01 09:55:55;;;;;;;;;4.00;3.00;;;;;;;;5051477;28;45921;-67
2022/02/01 09:58:27;;;;;;;;;4.00;4.00;;;;;;;;5051052;28;45404;-66
2022/02/01 10:00:55;;;;;;;;;6.00;2.75;;;;;;;;5051509;28;45342;-67
2022/02/01 10:03:20;;;;;;;;;6.25;3.25;;;;;;;;5053520;28;45299;-66
2022/02/01 10:06:03;;;;;;;;;6.00;5.75;;;;;;;;5052294;28;46333;-66
2022/02/01 10:08:29;;;;;;;;;4.75;4.75;;;;;;;;5051032;28;45304;-66
2022/02/01 10:10:55;;;;;;;;;12.25;9.00;;;;;;;;5051070;28;45480;-67
2022/02/01 10:13:21;;;;;;;;;4.00;3.00;;;;;;;;5052016;28;45340;-69
2022/02/01 10:16:03;;;;;;;;;3.00;3.00;;;;;;;;5051581;28;46078;-69
2022/02/01 10:18:30;;;;;;;;;3.75;3.25;;;;;;;;5052798;28;45499;-71
2022/02/01 10:21:03;;;;;;;;;3.75;3.75;;;;;;;;5052479;28;45230;-69
2022/02/01 10:23:29;;;;;;;;;7.25;4.75;;;;;;;;5051374;28;45604;-70
2022/02/01 10:26:20;;;;;;;;;6.00;4.50;;;;;;;;5051129;28;46186;-69
2022/02/01 10:31:28;;;;;;;;;4.00;4.00;;;;;;;;5051788;28;45473;-70
2022/02/01 10:34:01;;;;;;;;;4.25;3.00;;;;;;;;5050901;28;45573;-70
2022/02/01 10:36:37;;;;;;;;;4.50;4.00;;;;;;;;5053584;28;46957;-71
2022/02/01 10:39:02;;;;;;;;;5.00;2.50;;;;;;;;5053986;28;45347;-70
2022/02/01 10:41:28;;;;;;;;;3.75;3.25;;;;;;;;5050311;28;45573;-69
2022/02/01 10:43:53;;;;;;;;;4.00;3.50;;;;;;;;5050759;28;45571;-69
2022/02/01 10:46:20;;;;;;;;;5.50;5.25;;;;;;;;5052418;28;46322;-69
2022/02/01 10:48:47;;;;;;;;;4.75;3.50;;;;;;;;5051108;28;45603;-69
2022/02/01 10:51:16;;;;;;;;;5.50;4.50;;;;;;;;5054106;28;45519;-70
2022/02/01 10:53:42;;;;;;;;;3.25;3.00;;;;;;;;5051519;28;45290;-70
2022/02/01 10:56:12;;;;;;;;;5.75;5.00;;;;;;;;5050343;28;45935;-70
2022/02/01 10:58:37;;;;;;;;;4.00;4.00;;;;;;;;5049842;28;45474;-70
2022/02/01 11:01:04;;;;;;;;;5.25;4.25;;;;;;;;5050675;28;45459;-70
2022/02/01 11:03:30;;;;;;;;;7.00;5.00;;;;;;;;5051901;28;45385;-70
2022/02/01 11:05:56;;;;;;;;;4.50;4.50;;;;;;;;5052655;28;45970;-70
2022/02/01 11:08:25;;;;;;;;;4.25;4.25;;;;;;;;5050927;28;45451;-70
2022/02/01 11:10:51;;;;;;;;;5.75;3.25;;;;;;;;5051031;28;45579;-69
2022/02/01 11:13:17;;;;;;;;;3.00;3.00;;;;;;;;5051150;28;45528;-69
2022/02/01 11:15:59;;;;;;;;;4.75;4.75;;;;;;;;5051293;28;45538;-70
2022/02/01 11:18:26;;;;;;;;;4.00;2.75;;;;;;;;5050433;28;45550;-70
2022/02/01 11:20:53;;;;;;;;;4.00;4.00;;;;;;;;5051220;28;45492;-70
2022/02/01 11:23:22;;;;;;;;;8.50;8.50;;;;;;;;5049408;28;45420;-70
2022/02/01 11:25:52;;;;;;;;;3.75;3.50;;;;;;;;5049596;28;46569;-68
2022/02/01 11:28:40;;;;;;;;;3.75;3.75;;;;;;;;5049762;28;45442;-69
2022/02/01 11:31:05;;;;;;;;;4.25;3.00;;;;;;;;5049987;28;45529;-70
2022/02/01 11:33:38;;;;;;;;;4.00;4.00;;;;;;;;5051147;28;45885;-71
2022/02/01 11:36:05;;;;;;;;;6.00;4.75;;;;;;;;5030799;28;46010;-69
2022/02/01 11:38:30;;;;;;;;;5.25;5.25;;;;;;;;5047951;28;45347;-70
2022/02/01 11:41:01;;;;;;;;;5.00;4.75;;;;;;;;5049426;28;45503;-69
2022/02/01 11:43:26;;;;;;;;;4.50;3.75;;;;;;;;5050215;28;45562;-69
2022/02/01 11:45:55;;;;;;;;;5.50;4.50;;;;;;;;5049407;28;45998;-71
2022/02/01 11:48:21;;;;;;;;;3.50;2.75;;;;;;;;5051750;28;45385;-71
2022/02/01 11:51:07;;;;;;;;;3.25;2.00;;;;;;;;5051279;28;45468;-70
2022/02/01 11:53:32;;;;;;;;;4.25;4.00;;;;;;;;5033902;28;48207;-70
2022/02/01 11:55:58;;;;;;;;;4.25;4.25;;;;;;;;5050136;28;46134;-69
2022/02/01 11:58:42;;;;;;;;;3.00;3.00;;;;;;;;5049983;28;45503;-69
2022/02/01 12:01:19;;;;;;;;;3.75;3.00;;;;;;;;5049937;28;45894;-70
2022/02/01 12:03:44;;;;;;;;;4.00;4.00;;;;;;;;5034080;28;45523;-68
2022/02/01 12:06:19;;;;;;;;;6.25;5.00;;;;;;;;5052848;28;46063;-71
2022/02/01 12:08:44;;;;;;;;;7.75;5.00;;;;;;;;5050482;28;45430;-69
2022/02/01 12:11:12;;;;;;;;;5.50;5.00;;;;;;;;5049506;28;45345;-69
2022/02/01 12:13:37;;;;;;;;;4.75;3.75;;;;;;;;5049822;28;45566;-71
2022/02/01 12:16:05;;;;;;;;;4.25;4.25;;;;;;;;5050013;28;46385;-70
2022/02/01 12:18:48;;;;;;;;;6.75;5.00;;;;;;;;5051481;28;45270;-70
2022/02/01 12:21:28;;;;;;;;;7.00;5.00;;;;;;;;5048837;28;45497;-70
2022/02/01 12:23:55;;;;;;;;;6.50;5.50;;;;;;;;5051071;28;45434;-69
2022/02/01 12:26:20;;;;;;;;;8.25;5.00;;;;;;;;5049750;28;46571;-69
2022/02/01 12:28:46;;;;;;;;;5.75;5.75;;;;;;;;5049505;28;45460;-70
2022/02/01 12:31:12;;;;;;;;;4.00;4.00;;;;;;;;5049614;28;45350;-70
2022/02/01 12:33:39;;;;;;;;;6.75;5.00;;;;;;;;5050024;28;45388;-69
2022/02/01 12:36:04;;;;;;;;;5.50;5.00;;;;;;;;5051932;28;46670;-69
2022/02/01 12:38:30;;;;;;;;;6.00;6.00;;;;;;;;5049000;28;45502;-69
2022/02/01 12:41:00;;;;;;;;;5.75;4.50;;;;;;;;5051800;28;45302;-70
2022/02/01 12:43:29;;;;;;;;;7.75;3.50;;;;;;;;5049486;28;45311;-69
2022/02/01 12:48:46;;;;;;;;;4.00;4.00;;;;;;;;5033936;28;45471;-70
2022/02/01 12:51:11;;;;;;;;;7.00;6.00;;;;;;;;5048547;28;45235;-69
2022/02/01 12:53:38;;;;;;;;;8.25;8.25;;;;;;;;5049007;28;45425;-70
2022/02/01 12:56:10;;;;;;;;;6.00;5.50;;;;;;;;5049099;28;46416;-71
2022/02/01 12:58:36;;;;;;;;;5.75;4.25;;;;;;;;5052139;28;45462;-70
2022/02/01 13:01:01;;;;;;;;;5.00;5.00;;;;;;;;5052889;28;45554;-70
2022/02/01 13:03:26;;;;;;;;;5.75;3.00;;;;;;;;5037126;28;45441;-70
2022/02/01 13:05:56;;;;;;;;;5.50;5.50;;;;;;;;5052883;28;45920;-70
2022/02/01 13:21:02;;;;;;;;;4.25;4.25;;;;;;;;5053982;28;45373;-71
2022/02/01 13:23:38;;;;;;;;;5.25;5.25;;;;;;;;5052299;28;45467;-69
2022/02/01 13:26:29;;;;;;;;;5.00;5.00;;;;;;;;5052128;28;46226;-70
2022/02/01 13:29:08;;;;;;;;;6.00;6.00;;;;;;;;5048984;28;45419;-70
2022/02/01 13:31:35;;;;;;;;;6.50;4.00;;;;;;;;5054721;28;45346;-69
2022/02/01 13:34:04;;;;;;;;;6.25;5.00;;;;;;;;5052136;28;45487;-70
2022/02/01 13:36:31;;;;;;;;;8.25;5.75;;;;;;;;5054198;28;46180;-69
2022/02/01 13:39:00;;;;;;;;;6.75;5.00;;;;;;;;5053992;28;45702;-70
2022/02/01 13:41:26;;;;;;;;;8.00;6.00;;;;;;;;5052224;28;45489;-71
2022/02/01 13:43:56;;;;;;;;;6.75;6.75;;;;;;;;5051852;28;45509;-69
2022/02/01 13:46:22;;;;;;;;;6.75;5.00;;;;;;;;5052499;28;47551;-69
2022/02/01 13:49:00;;;;;;;;;8.25;6.75;;;;;;;;5053516;28;45503;-70
2022/02/01 13:51:25;;;;;;;;;5.00;4.50;;;;;;;;5054645;28;45203;-70
2022/02/01 13:53:57;;;;;;;;;6.00;6.00;;;;;;;;5053046;28;45439;-69
2022/02/01 13:56:25;;;;;;;;;5.75;4.75;;;;;;;;5051988;28;46407;-70
2022/02/01 13:58:50;;;;;;;;;6.00;4.50;;;;;;;;5051888;28;45332;-70
2022/02/01 14:01:16;;;;;;;;;7.00;6.00;;;;;;;;5051999;28;45143;-70
2022/02/01 14:03:46;;;;;;;;;7.00;5.25;;;;;;;;5036374;28;45230;-70
2022/02/01 14:06:42;;;;;;;;;5.00;4.75;;;;;;;;5051905;28;47163;-70
2022/02/01 14:16:02;;;;;;;;;5.25;5.00;;;;;;;;5052492;28;45468;-68
2022/02/01 14:26:15;;;;;;;;;3.25;2.00;;;;;;;;4971606;28;45553;-70
2022/02/01 14:28:55;;;;;;;;;2.25;2.25;;;;;;;;4971297;28;46946;-73
2022/02/01 14:34:08;;;;;;;;;6.50;5.75;;;;;;;;4971872;28;45468;-75
2022/02/01 14:36:36;;;;;;;;;8.00;7.00;;;;;;;;4972073;28;45286;-71
2022/02/01 14:47:01;;;;;;;;;9.50;7.75;;;;;;;;4969962;28;45450;-70
2022/02/01 14:49:26;;;;;;;;;6.00;4.00;;;;;;;;4970287;28;46505;-73
2022/02/01 14:51:52;;;;;;;;;9.00;6.25;;;;;;;;4970199;28;45505;-70
2022/02/01 14:54:20;;;;;;;;;4.00;4.00;;;;;;;;4954470;28;45549;-71
2022/02/01 14:56:49;;;;;;;;;5.25;5.25;;;;;;;;4971519;28;45648;-73
2022/02/01 15:07:46;;;;;;;;;6.75;4.50;;;;;;;;5051723;28;45337;-71
2022/02/01 15:12:56;;;;;;;;;4.00;3.75;;;;;;;;5049507;28;45939;-70
2022/02/01 15:15:21;;;;;;;;;6.25;4.75;;;;;;;;5052558;28;45404;-71
2022/02/01 15:17:46;;;;;;;;;3.00;3.00;;;;;;;;5052151;28;45898;-71
2022/02/01 15:20:12;;;;;;;;;3.25;3.25;;;;;;;;5048753;28;46219;-71
2022/02/01 15:22:39;;;;;;;;;5.25;4.25;;;;;;;;5049928;28;45432;-69
2022/02/01 15:25:04;;;;;;;;;6.00;4.00;;;;;;;;5050384;28;45501;-70
2022/02/01 15:27:29;;;;;;;;;4.00;4.00;;;;;;;;5052061;28;45357;-71
2022/02/01 15:29:55;;;;;;;;;3.50;3.25;;;;;;;;5050895;28;45487;-70
2022/02/01 15:32:20;;;;;;;;;5.00;5.00;;;;;;;;5048823;28;45395;-70
2022/02/01 15:34:46;;;;;;;;;3.50;3.50;;;;;;;;5049746;28;45425;-70
2022/02/01 15:37:11;;;;;;;;;4.25;4.25;;;;;;;;5049784;28;45416;-72
2022/02/01 15:58:10;;;;;;;;;5.00;4.00;;;;;;;;5049622;28;45480;-72
2022/02/01 16:00:37;;;;;;;;;6.25;5.25;;;;;;;;5050466;28;46601;-72
2022/02/01 16:03:18;;;;;;;;;4.25;3.75;;;;;;;;5051953;28;45466;-70
2022/02/01 16:05:43;;;;;;;;;3.00;3.00;;;;;;;;5049996;28;45399;-73
2022/02/01 16:08:09;;;;;;;;;5.75;5.00;;;;;;;;5031267;28;45492;-71
2022/02/01 16:10:40;;;;;;;;;7.00;5.00;;;;;;;;5049217;28;45392;-72
2022/02/01 16:13:12;;;;;;;;;5.50;4.00;;;;;;;;5048396;28;45810;-71
2022/02/01 16:15:37;;;;;;;;;5.25;4.75;;;;;;;;5049208;28;45494;-71
2022/02/01 16:18:04;;;;;;;;;4.00;4.00;;;;;;;;5051287;28;45564;-70
2022/02/01 16:20:29;;;;;;;;;8.50;5.75;;;;;;;;5047911;28;46918;-70
2022/02/01 16:22:54;;;;;;;;;5.25;4.25;;;;;;;;5048357;28;45756;-71
2022/02/01 16:25:19;;;;;;;;;6.75;5.25;;;;;;;;5049185;28;45325;-71
2022/02/01 16:27:45;;;;;;;;;4.25;3.25;;;;;;;;5050624;28;45685;-72
2022/02/01 16:30:14;;;;;;;;;6.50;4.50;;;;;;;;5052316;28;46827;-72
2022/02/01 16:32:40;;;;;;;;;3.50;3.50;;;;;;;;5047690;28;45301;-71
2022/02/01 16:35:05;;;;;;;;;3.00;3.00;;;;;;;;5048052;28;45442;-70
2022/02/01 16:37:31;;;;;;;;;4.00;4.00;;;;;;;;5048678;28;45381;-70
2022/02/01 16:39:56;;;;;;;;;4.75;4.00;;;;;;;;5049001;28;46421;-75
2022/02/01 16:42:22;;;;;;;;;7.00;4.50;;;;;;;;5048961;28;45323;-72
2022/02/01 16:44:48;;;;;;;;;3.75;3.75;;;;;;;;5051269;28;45579;-74
2022/02/01 16:47:14;;;;;;;;;6.50;5.50;;;;;;;;5046222;28;45368;-71
2022/02/01 16:49:40;;;;;;;;;6.75;6.75;;;;;;;;5047362;28;45613;-71
2022/02/01 16:52:09;;;;;;;;;7.00;6.00;;;;;;;;5048755;28;45840;-72
2022/02/01 16:54:51;;;;;;;;;8.25;7.00;;;;;;;;5049564;28;45491;-71
2022/02/01 16:57:17;;;;;;;;;8.75;7.25;;;;;;;;5050465;28;45529;-71
2022/02/01 16:59:42;;;;;;;;;8.25;7.25;;;;;;;;5048440;28;45529;-71
2022/02/01 17:02:07;;;;;;;;;8.50;6.25;;;;;;;;5050693;28;45645;-71
2022/02/01 17:04:33;;;;;;;;;8.25;7.25;;;;;;;;5048787;28;45589;-71
2022/02/01 17:06:58;;;;;;;;;11.00;8.50;;;;;;;;5031804;28;45608;-71
2022/02/01 17:09:26;;;;;;;;;7.75;7.75;;;;;;;;5056754;28;46452;-72
2022/02/01 17:12:05;;;;;;;;;7.25;7.25;;;;;;;;5049451;28;45279;-69
2022/02/01 17:17:35;;;;;;;;;8.00;8.00;;;;;;;;5047601;28;45391;-69
2022/02/01 17:22:40;;;;;;;;;8.50;7.00;;;;;;;;5048073;28;45570;-70
2022/02/01 17:25:05;;;;;;;;;8.25;8.00;;;;;;;;5048178;28;45488;-72
2022/02/01 17:27:30;;;;;;;;;10.00;8.75;;;;;;;;5048604;28;45482;-73
2022/02/01 17:29:56;;;;;;;;;6.50;6.50;;;;;;;;5051132;28;46932;-72
2022/02/01 17:32:21;;;;;;;;;9.75;8.50;;;;;;;;5049991;28;45441;-71
2022/02/01 17:34:46;;;;;;;;;8.25;6.25;;;;;;;;5051022;28;45360;-71
2022/02/01 17:37:11;;;;;;;;;9.00;9.00;;;;;;;;5033659;28;45431;-70
2022/02/01 17:39:36;;;;;;;;;10.25;9.00;;;;;;;;5049238;28;45303;-69
2022/02/01 17:42:02;;;;;;;;;9.25;8.25;;;;;;;;5050134;28;45295;-70
2022/02/01 17:44:27;;;;;;;;;8.00;8.00;;;;;;;;5050957;28;45474;-70
2022/02/01 17:46:52;;;;;;;;;17.25;14.25;;;;;;;;5051042;28;45564;-71
2022/02/01 17:49:18;;;;;;;;;11.00;10.00;;;;;;;;5052319;28;46400;-68
2022/02/01 17:54:21;;;;;;;;;10.00;10.00;;;;;;;;5052753;28;45309;-76
2022/02/01 17:56:46;;;;;;;;;13.75;9.00;;;;;;;;5051319;28;45511;-76
2022/02/01 17:59:12;;;;;;;;;17.50;14.25;;;;;;;;5053375;28;46264;-73
2022/02/01 18:01:37;;;;;;;;;12.50;10.75;;;;;;;;5051107;28;45434;-73
2022/02/01 18:04:03;;;;;;;;;11.50;11.00;;;;;;;;5053322;28;45319;-73
2022/02/01 18:06:28;;;;;;;;;14.50;11.25;;;;;;;;5053244;28;45360;-72
2022/02/01 18:08:54;;;;;;;;;16.00;12.00;;;;;;;;5054117;28;47402;-78
2022/02/01 18:11:23;;;;;;;;;11.25;11.25;;;;;;;;5050731;28;45340;-76
2022/02/01 18:14:02;;;;;;;;;14.25;13.00;;;;;;;;5051119;28;45626;-75
2022/02/01 18:16:28;;;;;;;;;13.25;12.50;;;;;;;;5051821;28;45489;-77
2022/02/01 18:18:54;;;;;;;;;14.25;10.50;;;;;;;;5050541;28;46202;-74
2022/02/01 18:21:19;;;;;;;;;15.75;11.75;;;;;;;;5059565;28;45360;-75
2022/02/01 18:23:44;;;;;;;;;10.50;10.00;;;;;;;;5066197;28;44784;-73
2022/02/01 18:26:10;;;;;;;;;13.00;13.00;;;;;;;;5069207;28;44784;-74
2022/02/01 18:28:35;;;;;;;;;11.50;10.75;;;;;;;;5066298;28;46221;-76
2022/02/01 18:31:02;;;;;;;;;14.75;13.25;;;;;;;;5049862;28;45620;-70
2022/02/01 18:33:30;;;;;;;;;15.25;14.75;;;;;;;;5062851;28;45321;-75
2022/02/01 18:36:06;;;;;;;;;13.50;13.50;;;;;;;;5055837;28;45705;-75
2022/02/01 18:38:32;;;;;;;;;10.50;9.00;;;;;;;;5053485;28;46158;-77
2022/02/01 18:41:01;;;;;;;;;16.25;14.50;;;;;;;;5053588;28;45362;-79
2022/02/01 18:43:33;;;;;;;;;15.75;13.75;;;;;;;;5049146;28;45578;-72
2022/02/01 18:46:07;;;;;;;;;16.50;14.75;;;;;;;;5034171;28;45562;-72
2022/02/01 18:48:34;;;;;;;;;14.00;13.25;;;;;;;;5053067;28;47330;-72
2022/02/01 18:51:07;;;;;;;;;15.25;14.00;;;;;;;;5034179;28;45463;-74
2022/02/01 18:58:38;;;;;;;;;13.25;13.25;;;;;;;;5050411;28;45968;-73
2022/02/01 19:04:16;;;;;;;;;12.00;11.25;;;;;;;;5036794;28;45526;-73
2022/02/01 19:07:10;;;;;;;;;13.25;11.75;;;;;;;;5051017;28;45578;-71
2022/02/01 19:09:54;;;;;;;;;15.75;11.00;;;;;;;;5051149;28;45536;-73
2022/02/01 19:12:20;;;;;;;;;7.25;7.00;;;;;;;;5050032;28;45335;-74
2022/02/01 19:14:45;;;;;;;;;13.75;12.00;;;;;;;;5050869;28;45427;-72
2022/02/01 19:17:11;;;;;;;;;13.00;11.33;;;;;;;;5003596;28;1318291;-72
2022/02/01 19:19:37;;;;;;;;;14.00;11.75;;;;;;;;5051030;28;46750;-74
2022/02/01 19:22:02;;;;;;;;;12.25;10.75;;;;;;;;5052818;28;45438;-72
2022/02/01 19:24:32;;;;;;;;;12.50;10.00;;;;;;;;5053596;28;45389;-73
2022/02/01 19:26:58;;;;;;;;;13.50;13.00;;;;;;;;5052820;28;45397;-73
2022/02/01 19:29:25;;;;;;;;;14.75;14.75;;;;;;;;5053422;28;46035;-72
2022/02/01 19:31:51;;;;;;;;;15.50;13.00;;;;;;;;5052830;28;45340;-75
2022/02/01 19:34:21;;;;;;;;;16.00;14.25;;;;;;;;5051268;28;45320;-74
2022/02/01 19:36:47;;;;;;;;;16.50;15.00;;;;;;;;5035141;28;45563;-73
2022/02/01 19:39:14;;;;;;;;;16.00;12.00;;;;;;;;5050740;28;46947;-73
2022/02/01 19:41:40;;;;;;;;;20.50;17.50;;;;;;;;5051053;28;45410;-73
2022/02/01 19:44:11;;;;;;;;;15.50;13.25;;;;;;;;5051239;28;45406;-75
2022/02/01 19:46:36;;;;;;;;;16.75;15.75;;;;;;;;5052978;28;45359;-71
2022/02/01 19:49:05;;;;;;;;;17.75;14.75;;;;;;;;5051076;28;46233;-71
2022/02/01 19:51:32;;;;;;;;;15.00;13.75;;;;;;;;5053854;28;45589;-71
2022/02/01 19:53:58;;;;;;;;;12.00;9.75;;;;;;;;5055023;28;45225;-73